Time;durP1;ratioP1;P1;durP2;ratioP2;P2;SDS_P1;SDS_P2;PMS_P1;PMS_P2;Temp;Humidity;BMP_temperature;BMP_pressure;BME280_temperature;BME280_humidity;BME280_pressure;Samples;Min_cycle;Max_cycle;Signal;HPM_P1;HPM_P2
2021/09/21 00:02:20;;;;;;;25.05;12.40;;;6.80;95.60;;;;;;5021433;28;20476;-67
2021/09/21 00:04:45;;;;;;;25.88;12.80;;;6.80;95.90;;;;;;5022321;28;20481;-66
2021/09/21 00:07:11;;;;;;;19.80;10.98;;;6.80;96.20;;;;;;5030638;28;20109;-68
2021/09/21 00:09:37;;;;;;;29.27;12.57;;;6.80;96.40;;;;;;5023497;28;20121;-68
2021/09/21 00:12:02;;;;;;;22.40;12.43;;;6.90;96.70;;;;;;5023475;28;20029;-67
2021/09/21 00:14:28;;;;;;;26.25;12.30;;;6.80;96.50;;;;;;5019513;28;20056;-65
2021/09/21 00:16:54;;;;;;;26.33;12.40;;;6.80;96.40;;;;;;5025783;28;20095;-68
2021/09/21 00:19:19;;;;;;;24.42;11.20;;;6.80;96.40;;;;;;5021676;28;20025;-68
2021/09/21 00:21:45;;;;;;;25.27;12.98;;;6.70;96.10;;;;;;5023412;28;20499;-67
2021/09/21 00:24:10;;;;;;;21.88;11.50;;;6.70;96.00;;;;;;5027289;28;20104;-65
2021/09/21 00:26:36;;;;;;;20.30;11.85;;;6.60;96.00;;;;;;5021906;28;20053;-65
2021/09/21 00:29:02;;;;;;;22.15;11.98;;;6.60;96.10;;;;;;5023603;28;20033;-67
2021/09/21 00:31:37;;;;;;;23.10;12.20;;;6.60;96.10;;;;;;5025554;28;20047;-67
2021/09/21 00:34:11;;;;;;;22.33;10.75;;;6.50;96.20;;;;;;5022814;28;20448;-67
2021/09/21 00:36:38;;;;;;;19.13;10.30;;;6.50;96.00;;;;;;5026197;28;20551;-67
2021/09/21 00:39:07;;;;;;;19.38;11.15;;;6.40;95.70;;;;;;5023178;28;20546;-67
2021/09/21 00:41:35;;;;;;;21.98;11.57;;;6.40;95.70;;;;;;5025137;28;20029;-67
2021/09/21 00:44:01;;;;;;;19.88;11.30;;;6.40;95.80;;;;;;5021925;28;20447;-68
2021/09/21 00:46:27;;;;;;;21.33;11.27;;;6.50;95.90;;;;;;5022850;28;20025;-67
2021/09/21 00:48:52;;;;;;;26.10;12.93;;;6.50;95.80;;;;;;5023897;28;20032;-67
2021/09/21 00:51:20;;;;;;;25.75;13.57;;;6.60;95.80;;;;;;5025063;28;20025;-66
2021/09/21 00:53:47;;;;;;;24.02;13.10;;;6.70;96.00;;;;;;5024057;28;20040;-67
2021/09/21 00:56:13;;;;;;;26.90;13.95;;;6.80;96.20;;;;;;5025325;28;20385;-67
2021/09/21 00:58:38;;;;;;;25.90;13.18;;;6.80;96.40;;;;;;5023453;28;20025;-67
2021/09/21 01:01:04;;;;;;;26.80;13.02;;;6.90;96.60;;;;;;5024842;28;20044;-68
2021/09/21 01:03:29;;;;;;;23.45;12.52;;;6.90;96.60;;;;;;5022673;28;20025;-68
2021/09/21 01:05:55;;;;;;;25.00;12.82;;;7.00;96.40;;;;;;5022252;28;20037;-65
2021/09/21 01:08:29;;;;;;;20.50;12.55;;;7.10;96.50;;;;;;5022675;28;20431;-68
2021/09/21 01:10:55;;;;;;;29.55;14.27;;;7.10;96.50;;;;;;5023533;28;20069;-65
2021/09/21 01:13:20;;;;;;;26.67;13.63;;;7.20;96.40;;;;;;5022633;28;20044;-67
2021/09/21 01:15:46;;;;;;;29.15;13.32;;;7.40;96.40;;;;;;5022246;28;20025;-68
2021/09/21 01:18:12;;;;;;;22.67;13.25;;;7.40;96.50;;;;;;5021234;28;20022;-67
2021/09/21 01:20:37;;;;;;;25.08;12.07;;;7.50;96.60;;;;;;5020374;28;20121;-67
2021/09/21 01:23:04;;;;;;;23.52;12.48;;;7.50;96.20;;;;;;5016618;28;20095;-67
2021/09/21 01:25:32;;;;;;;20.40;11.48;;;7.60;96.20;;;;;;5025182;28;20025;-68
2021/09/21 01:27:58;;;;;;;24.13;11.80;;;7.60;96.20;;;;;;5025671;28;20492;-66
2021/09/21 01:30:24;;;;;;;20.02;11.52;;;7.70;96.20;;;;;;5022369;28;20026;-67
2021/09/21 01:32:49;;;;;;;21.10;11.23;;;7.70;96.10;;;;;;5022952;28;20025;-67
2021/09/21 01:35:15;;;;;;;21.85;12.27;;;7.80;96.00;;;;;;5023505;28;20065;-66
2021/09/21 01:37:49;;;;;;;18.50;11.70;;;7.80;95.90;;;;;;5021077;28;20040;-67
2021/09/21 01:40:15;;;;;;;16.92;11.70;;;7.90;95.90;;;;;;5021403;28;20068;-66
2021/09/21 01:42:45;;;;;;;18.67;11.02;;;7.90;95.90;;;;;;5023135;28;20029;-66
2021/09/21 01:45:13;;;;;;;19.13;10.98;;;8.00;95.70;;;;;;5021472;28;20036;-67
2021/09/21 01:47:38;;;;;;;19.33;10.40;;;8.00;95.70;;;;;;5023763;28;20025;-67
2021/09/21 01:52:51;;;;;;;16.35;10.93;;;8.10;95.70;;;;;;5020316;28;20577;-67
2021/09/21 02:00:32;;;;;;;16.77;10.73;;;8.20;95.40;;;;;;5026598;28;20079;-67
2021/09/21 02:02:58;;;;;;;14.85;9.35;;;8.20;95.50;;;;;;5019108;28;20396;-66
2021/09/21 02:05:23;;;;;;;15.07;9.13;;;8.30;95.70;;;;;;5022066;28;20215;-67
2021/09/21 02:07:49;;;;;;;12.93;8.70;;;8.30;95.50;;;;;;5027195;28;20034;-67
2021/09/21 02:10:14;;;;;;;15.85;9.32;;;8.40;95.60;;;;;;5023697;28;20045;-66
2021/09/21 02:12:40;;;;;;;18.60;9.52;;;8.30;95.40;;;;;;5028570;28;20083;-67
2021/09/21 02:15:07;;;;;;;13.27;9.18;;;8.30;95.70;;;;;;5019676;28;20113;-67
2021/09/21 02:17:33;;;;;;;13.52;8.95;;;8.30;95.80;;;;;;5024331;28;20048;-68
2021/09/21 02:19:59;;;;;;;14.15;9.27;;;8.30;95.50;;;;;;5023838;28;20504;-67
2021/09/21 02:22:25;;;;;;;14.00;8.95;;;8.30;95.60;;;;;;5024343;28;20359;-67
2021/09/21 02:24:50;;;;;;;14.50;9.02;;;8.40;95.80;;;;;;5031802;28;20124;-67
2021/09/21 02:27:16;;;;;;;13.32;8.45;;;8.40;95.80;;;;;;5035976;28;20059;-67
2021/09/21 02:29:42;;;;;;;13.90;9.00;;;8.40;95.90;;;;;;5018946;28;20424;-68
2021/09/21 02:32:07;;;;;;;17.20;9.75;;;8.40;96.10;;;;;;5023760;28;20021;-66
2021/09/21 02:34:33;;;;;;;14.30;8.77;;;8.40;96.00;;;;;;5025060;28;20032;-67
2021/09/21 02:36:58;;;;;;;14.43;9.10;;;8.40;96.00;;;;;;5030468;28;20029;-67
2021/09/21 02:39:24;;;;;;;13.27;8.73;;;8.40;96.10;;;;;;5026502;28;20172;-67
2021/09/21 02:41:50;;;;;;;16.05;9.35;;;8.50;95.90;;;;;;5028639;28;20030;-67
2021/09/21 02:44:15;;;;;;;13.27;9.57;;;8.40;95.90;;;;;;5024602;28;20021;-66
2021/09/21 02:46:41;;;;;;;15.93;9.80;;;8.40;96.10;;;;;;5022748;28;20529;-66
2021/09/21 02:49:06;;;;;;;13.68;9.20;;;8.40;96.10;;;;;;5025226;28;20613;-67
2021/09/21 02:51:32;;;;;;;13.65;9.32;;;8.30;96.10;;;;;;5027251;28;20025;-67
2021/09/21 02:53:57;;;;;;;13.40;9.05;;;8.30;96.10;;;;;;5024727;28;20603;-68
2021/09/21 02:56:23;;;;;;;14.00;9.18;;;8.30;96.00;;;;;;5028642;28;20030;-68
2021/09/21 02:58:49;;;;;;;13.02;8.98;;;8.30;95.80;;;;;;5027228;28;20044;-66
2021/09/21 03:01:15;;;;;;;13.63;9.10;;;8.30;95.90;;;;;;5025681;28;20065;-67
2021/09/21 03:03:53;;;;;;;13.05;8.98;;;8.30;95.80;;;;;;5026164;28;20219;-66
2021/09/21 03:06:29;;;;;;;15.45;9.30;;;8.30;96.00;;;;;;5023017;28;20377;-65
2021/09/21 03:09:02;;;;;;;14.82;8.82;;;8.30;96.00;;;;;;5035904;28;20586;-66
2021/09/21 03:11:31;;;;;;;14.15;8.88;;;8.40;95.90;;;;;;5032103;28;20037;-68
2021/09/21 03:19:26;;;;;;;14.85;8.95;;;8.40;95.40;;;;;;5024148;28;20095;-66
2021/09/21 03:21:52;;;;;;;11.85;8.25;;;8.40;95.30;;;;;;5021517;28;20476;-66
2021/09/21 03:24:18;;;;;;;16.02;8.48;;;8.50;95.40;;;;;;5023301;28;20021;-65
2021/09/21 03:26:44;;;;;;;12.02;7.78;;;8.50;95.20;;;;;;5037056;28;20102;-66
2021/09/21 03:29:10;;;;;;;11.90;7.78;;;8.50;95.20;;;;;;5025147;28;20315;-68
2021/09/21 03:31:35;;;;;;;13.00;7.85;;;8.40;95.30;;;;;;5025916;28;20030;-67
2021/09/21 03:34:01;;;;;;;12.68;8.10;;;8.50;95.30;;;;;;5024564;28;20466;-67
2021/09/21 03:36:27;;;;;;;11.57;7.72;;;8.50;95.20;;;;;;5026614;28;20325;-67
2021/09/21 03:38:52;;;;;;;14.68;8.05;;;8.50;95.40;;;;;;5025866;28;20465;-67
2021/09/21 03:41:18;;;;;;;13.73;7.80;;;8.50;95.40;;;;;;5025938;28;20024;-67
2021/09/21 03:43:44;;;;;;;14.90;8.57;;;8.50;95.40;;;;;;5025030;28;20087;-67
2021/09/21 03:46:09;;;;;;;12.30;8.27;;;8.50;95.30;;;;;;5029226;28;20029;-65
2021/09/21 03:48:35;;;;;;;12.43;8.57;;;8.50;95.40;;;;;;5023755;28;20392;-67
2021/09/21 03:51:01;;;;;;;12.88;8.57;;;8.50;95.30;;;;;;5025920;28;20268;-67
2021/09/21 03:53:26;;;;;;;12.25;8.00;;;8.40;95.20;;;;;;5022642;28;20033;-67
2021/09/21 03:55:52;;;;;;;12.82;8.52;;;8.40;95.20;;;;;;5025554;28;20468;-65
2021/09/21 03:58:17;;;;;;;11.43;8.05;;;8.50;95.10;;;;;;5025304;28;20028;-68
2021/09/21 04:00:43;;;;;;;12.55;8.25;;;8.40;95.10;;;;;;5025900;28;20416;-67
2021/09/21 04:03:09;;;;;;;13.00;8.55;;;8.40;95.20;;;;;;5019403;28;20468;-67
2021/09/21 04:05:35;;;;;;;13.77;8.82;;;8.40;95.20;;;;;;5023799;28;20117;-67
2021/09/21 04:08:00;;;;;;;13.77;8.52;;;8.40;95.20;;;;;;5022595;28;20144;-66
2021/09/21 04:10:26;;;;;;;13.57;8.88;;;8.50;95.20;;;;;;5030787;28;20037;-67
2021/09/21 04:12:52;;;;;;;14.30;8.80;;;8.50;95.20;;;;;;5033876;28;20546;-67
2021/09/21 04:15:17;;;;;;;13.02;8.60;;;8.50;95.20;;;;;;5018735;28;20186;-66
2021/09/21 04:17:43;;;;;;;11.52;8.52;;;8.40;95.30;;;;;;5022746;28;20032;-68
2021/09/21 04:20:09;;;;;;;10.48;7.50;;;8.50;95.20;;;;;;5024078;28;20037;-63
2021/09/21 04:22:36;;;;;;;12.82;8.40;;;8.40;95.00;;;;;;5020746;28;20037;-63
2021/09/21 04:25:03;;;;;;;11.52;7.82;;;8.30;95.10;;;;;;5038004;28;20040;-62
2021/09/21 04:27:29;;;;;;;12.00;8.05;;;8.30;95.20;;;;;;5032422;28;20029;-63
2021/09/21 04:29:58;;;;;;;10.45;7.60;;;8.40;95.20;;;;;;5022892;28;20042;-62
2021/09/21 04:32:24;;;;;;;22.70;8.65;;;8.30;95.20;;;;;;5022766;28;20091;-61
2021/09/21 04:34:50;;;;;;;14.02;8.00;;;8.40;95.30;;;;;;5018784;28;20100;-63
2021/09/21 04:37:16;;;;;;;12.23;7.88;;;8.40;95.20;;;;;;5025364;28;20035;-63
2021/09/21 04:39:42;;;;;;;16.45;7.88;;;8.40;95.30;;;;;;5020602;28;20045;-63
2021/09/21 04:42:11;;;;;;;12.00;8.18;;;8.40;95.10;;;;;;5021482;28;20030;-62
2021/09/21 04:44:38;;;;;;;12.05;8.05;;;8.50;95.20;;;;;;5030455;28;20917;-62
2021/09/21 04:47:04;;;;;;;13.30;8.10;;;8.50;95.20;;;;;;5022273;28;20571;-62
2021/09/21 04:49:30;;;;;;;12.40;8.13;;;8.50;95.00;;;;;;5026761;28;20074;-62
2021/09/21 04:51:55;;;;;;;12.48;8.20;;;8.60;95.10;;;;;;5026570;28;20034;-63
2021/09/21 04:54:21;;;;;;;13.23;8.55;;;8.60;95.00;;;;;;5020853;28;20061;-63
2021/09/21 04:56:47;;;;;;;13.10;8.77;;;8.60;95.00;;;;;;5025606;28;20033;-63
2021/09/21 04:59:12;;;;;;;14.10;8.48;;;8.70;95.00;;;;;;5022316;28;20038;-62
2021/09/21 05:01:38;;;;;;;12.55;7.97;;;8.70;95.00;;;;;;5018747;28;20029;-61
2021/09/21 05:04:04;;;;;;;14.25;8.05;;;8.70;94.70;;;;;;5020078;28;20526;-63
2021/09/21 05:06:30;;;;;;;10.82;7.70;;;8.60;94.70;;;;;;5018302;28;20057;-63
2021/09/21 05:08:56;;;;;;;11.88;8.27;;;8.70;94.70;;;;;;5021719;28;20045;-62
2021/09/21 05:11:21;;;;;;;11.45;7.78;;;8.70;94.70;;;;;;5019836;28;20036;-61
2021/09/21 05:13:47;;;;;;;12.27;7.65;;;8.80;94.70;;;;;;5024030;28;20307;-61
2021/09/21 05:16:12;;;;;;;13.55;7.55;;;8.80;94.70;;;;;;5033716;28;20037;-62
2021/09/21 05:18:38;;;;;;;12.05;8.32;;;8.80;94.60;;;;;;5025459;28;20028;-62
2021/09/21 05:21:04;;;;;;;12.18;8.45;;;8.80;94.80;;;;;;5018521;28;20484;-63
2021/09/21 05:23:29;;;;;;;12.95;8.50;;;8.90;94.50;;;;;;5017743;28;20652;-62
2021/09/21 05:25:55;;;;;;;15.15;8.98;;;8.90;94.70;;;;;;5023311;28;20120;-61
2021/09/21 05:28:21;;;;;;;12.90;7.93;;;8.90;94.80;;;;;;5028500;28;20032;-62
2021/09/21 05:30:46;;;;;;;12.57;7.97;;;8.80;94.90;;;;;;5025322;28;20077;-63
2021/09/21 05:33:12;;;;;;;14.40;8.32;;;8.90;95.10;;;;;;5025576;28;20113;-62
2021/09/21 05:35:37;;;;;;;13.90;9.07;;;8.90;95.10;;;;;;5022066;28;20492;-62
2021/09/21 05:38:03;;;;;;;11.27;8.25;;;9.00;95.00;;;;;;5023698;28;20026;-61
2021/09/21 05:40:29;;;;;;;12.80;8.25;;;9.00;94.70;;;;;;5021970;28;20251;-62
2021/09/21 05:42:55;;;;;;;12.05;8.15;;;9.00;94.30;;;;;;5023132;28;20041;-62
2021/09/21 05:45:21;;;;;;;13.32;7.78;;;9.00;94.30;;;;;;5028756;28;20029;-63
2021/09/21 05:47:48;;;;;;;11.43;8.05;;;9.00;94.10;;;;;;5040905;28;20435;-61
2021/09/21 05:50:14;;;;;;;13.10;8.07;;;9.10;93.90;;;;;;5022815;28;20129;-60
2021/09/21 05:52:40;;;;;;;12.07;8.05;;;9.10;93.70;;;;;;5026101;28;20056;-62
2021/09/21 05:55:07;;;;;;;11.63;7.55;;;9.10;93.60;;;;;;5025781;28;20099;-61
2021/09/21 05:57:33;;;;;;;12.52;7.50;;;9.20;93.50;;;;;;5027311;28;20029;-62
2021/09/21 05:59:58;;;;;;;12.45;8.02;;;9.20;93.50;;;;;;5026347;28;20040;-62
2021/09/21 06:02:24;;;;;;;12.20;8.10;;;9.30;93.60;;;;;;5026764;28;20384;-61
2021/09/21 06:04:51;;;;;;;11.85;7.95;;;9.30;93.50;;;;;;5025813;28;20675;-62
2021/09/21 06:07:17;;;;;;;12.48;7.40;;;9.30;93.60;;;;;;5028678;28;20113;-61
2021/09/21 06:09:42;;;;;;;10.43;7.40;;;9.30;93.70;;;;;;5023570;28;20030;-60
2021/09/21 06:12:08;;;;;;;10.07;7.35;;;9.30;93.60;;;;;;5035036;28;20047;-62
2021/09/21 06:14:34;;;;;;;14.15;8.15;;;9.30;93.60;;;;;;5032562;28;20550;-63
2021/09/21 06:16:59;;;;;;;11.00;7.63;;;9.40;93.70;;;;;;5043182;28;20017;-63
2021/09/21 06:19:25;;;;;;;12.52;7.82;;;9.50;93.80;;;;;;5023833;28;20076;-63
2021/09/21 06:21:51;;;;;;;11.15;7.20;;;9.40;93.40;;;;;;5025451;28;20025;-63
2021/09/21 06:24:16;;;;;;;12.00;7.60;;;9.50;93.10;;;;;;5025564;28;20034;-63
2021/09/21 06:26:42;;;;;;;10.52;7.25;;;9.60;93.30;;;;;;5033123;28;20049;-63
2021/09/21 06:29:08;;;;;;;15.23;7.00;;;9.60;93.00;;;;;;5027075;28;20033;-62
2021/09/21 06:31:33;;;;;;;11.73;7.18;;;9.70;93.10;;;;;;5024385;28;20671;-63
2021/09/21 06:33:59;;;;;;;11.48;7.07;;;9.80;93.30;;;;;;5034398;28;20055;-63
2021/09/21 06:36:25;;;;;;;10.60;7.22;;;9.90;93.00;;;;;;5027140;28;20403;-63
2021/09/21 06:38:50;;;;;;;9.48;6.55;;;9.90;92.60;;;;;;5027095;28;20030;-63
2021/09/21 06:41:16;;;;;;;12.95;6.57;;;10.00;92.10;;;;;;5026957;28;20514;-62
2021/09/21 06:43:42;;;;;;;8.75;5.85;;;10.10;91.80;;;;;;5024119;28;20496;-63
2021/09/21 06:46:07;;;;;;;8.38;6.03;;;10.10;91.90;;;;;;5024405;28;20033;-63
2021/09/21 06:48:38;;;;;;;11.18;7.07;;;10.10;91.30;;;;;;5030465;28;20045;-62
2021/09/21 06:51:05;;;;;;;9.27;6.28;;;10.20;91.70;;;;;;5028291;28;20029;-63
2021/09/21 06:53:30;;;;;;;10.82;6.03;;;10.20;91.30;;;;;;5025161;28;20503;-63
2021/09/21 06:55:56;;;;;;;9.00;6.47;;;10.30;90.40;;;;;;5028333;28;20076;-62
2021/09/21 06:58:21;;;;;;;8.10;5.63;;;10.30;91.00;;;;;;5030162;28;20075;-62
2021/09/21 07:00:47;;;;;;;8.65;5.97;;;10.40;91.20;;;;;;5029581;28;20681;-63
2021/09/21 07:03:13;;;;;;;8.82;5.88;;;10.50;90.50;;;;;;5025509;28;20108;-63
2021/09/21 07:05:39;;;;;;;10.13;5.75;;;10.50;90.80;;;;;;5026458;28;20037;-63
2021/09/21 07:08:04;;;;;;;9.68;5.82;;;10.50;90.90;;;;;;5027338;28;20124;-63
2021/09/21 07:10:30;;;;;;;8.07;5.63;;;10.30;90.50;;;;;;5023874;28;20591;-62
2021/09/21 07:12:56;;;;;;;9.65;6.13;;;10.40;90.40;;;;;;5024041;28;20045;-64
2021/09/21 07:15:22;;;;;;;10.68;6.05;;;10.40;90.40;;;;;;5028199;28;20021;-64
2021/09/21 07:17:52;;;;;;;9.27;6.03;;;10.40;90.50;;;;;;5029267;28;20037;-63
2021/09/21 07:20:18;;;;;;;9.60;5.80;;;10.40;90.40;;;;;;5022784;28;20087;-63
2021/09/21 07:22:44;;;;;;;8.48;5.78;;;10.50;91.00;;;;;;5024962;28;20380;-63
2021/09/21 07:25:10;;;;;;;12.63;5.97;;;10.60;91.00;;;;;;5024587;28;20021;-62
2021/09/21 07:27:36;;;;;;;10.27;5.97;;;10.60;90.50;;;;;;5025735;28;20396;-62
2021/09/21 07:30:02;;;;;;;9.65;5.80;;;10.70;90.70;;;;;;5028241;28;20029;-63
2021/09/21 07:32:28;;;;;;;8.50;5.65;;;10.70;90.60;;;;;;5020997;28;20129;-63
2021/09/21 07:34:54;;;;;;;9.20;5.70;;;10.80;90.50;;;;;;5026448;28;20503;-63
2021/09/21 07:37:20;;;;;;;10.50;6.25;;;10.80;90.40;;;;;;5026814;28;20021;-64
2021/09/21 07:39:46;;;;;;;8.55;5.72;;;10.80;90.40;;;;;;5021990;28;20472;-63
2021/09/21 07:42:11;;;;;;;8.70;5.63;;;10.80;90.10;;;;;;5023168;28;20032;-63
2021/09/21 07:44:37;;;;;;;9.95;5.88;;;10.90;89.90;;;;;;5025937;28;20416;-63
2021/09/21 07:47:03;;;;;;;8.25;5.63;;;10.90;90.30;;;;;;5024497;28;20021;-63
2021/09/21 07:49:28;;;;;;;12.38;5.90;;;11.00;89.80;;;;;;5025261;28;20079;-64
2021/09/21 07:51:54;;;;;;;8.27;5.72;;;11.10;90.00;;;;;;5023679;28;20030;-64
2021/09/21 07:54:20;;;;;;;10.57;5.65;;;11.30;89.70;;;;;;5020603;28;20443;-63
2021/09/21 07:56:45;;;;;;;9.48;5.43;;;11.40;88.60;;;;;;5021814;28;20052;-63
2021/09/21 07:59:11;;;;;;;9.02;5.30;;;11.50;88.60;;;;;;5022346;28;20461;-62
2021/09/21 08:01:37;;;;;;;8.23;5.20;;;11.60;88.00;;;;;;5024482;28;21254;-63
2021/09/21 08:04:06;;;;;;;8.07;5.53;;;11.70;88.00;;;;;;5021170;28;20480;-64
2021/09/21 08:06:32;;;;;;;8.18;5.28;;;11.80;87.90;;;;;;5025603;28;20124;-64
2021/09/21 08:08:57;;;;;;;9.30;5.43;;;11.80;87.50;;;;;;5023984;28;20546;-63
2021/09/21 08:11:23;;;;;;;8.23;5.40;;;11.80;87.00;;;;;;5025467;28;20274;-64
2021/09/21 08:13:49;;;;;;;9.40;5.25;;;12.00;87.40;;;;;;5024994;28;20038;-64
2021/09/21 08:16:15;;;;;;;8.18;5.32;;;12.00;86.80;;;;;;5025786;28;20037;-61
2021/09/21 08:18:40;;;;;;;8.43;5.40;;;12.00;87.10;;;;;;5023094;28;20025;-63
2021/09/21 08:21:06;;;;;;;9.27;5.35;;;12.00;86.90;;;;;;5020911;28;20752;-63
2021/09/21 08:23:31;;;;;;;8.43;5.57;;;12.10;86.80;;;;;;5023037;28;20124;-63
2021/09/21 08:25:57;;;;;;;10.02;5.70;;;12.00;86.70;;;;;;5020547;28;20033;-61
2021/09/21 08:28:23;;;;;;;8.02;5.03;;;12.10;86.50;;;;;;5020601;28;20042;-64
2021/09/21 08:30:48;;;;;;;7.35;5.28;;;12.10;86.80;;;;;;5027367;28;20511;-64
2021/09/21 08:33:14;;;;;;;9.13;5.38;;;12.10;87.40;;;;;;5024328;28;20112;-63
2021/09/21 08:35:40;;;;;;;9.43;5.20;;;12.10;87.40;;;;;;5024922;28;20033;-63
2021/09/21 08:38:06;;;;;;;9.07;5.65;;;12.10;87.60;;;;;;5021612;28;20060;-62
2021/09/21 08:40:31;;;;;;;10.75;5.35;;;12.10;87.20;;;;;;5023903;28;20087;-63
2021/09/21 08:42:58;;;;;;;7.35;5.13;;;12.10;87.00;;;;;;5022701;28;20030;-63
2021/09/21 08:45:24;;;;;;;7.75;4.97;;;12.20;87.10;;;;;;5018154;28;20060;-64
2021/09/21 08:47:50;;;;;;;10.57;5.10;;;12.20;86.60;;;;;;5027634;28;20037;-64
2021/09/21 08:50:16;;;;;;;7.80;4.70;;;12.30;86.00;;;;;;5024653;28;20276;-64
2021/09/21 08:52:42;;;;;;;9.35;5.35;;;12.50;86.10;;;;;;5024517;28;20386;-64
2021/09/21 08:55:12;;;;;;;9.43;5.18;;;12.60;85.90;;;;;;5026450;28;20040;-62
2021/09/21 08:57:40;;;;;;;9.18;5.13;;;12.60;85.80;;;;;;5027923;28;20567;-63
2021/09/21 09:00:10;;;;;;;8.38;5.35;;;12.70;85.50;;;;;;5021005;28;20042;-61
2021/09/21 09:02:36;;;;;;;9.57;4.95;;;12.80;85.60;;;;;;5024241;28;20460;-62
2021/09/21 09:05:11;;;;;;;10.15;5.53;;;12.80;85.00;;;;;;5020551;28;20044;-64
2021/09/21 09:07:54;;;;;;;7.20;4.90;;;13.10;84.80;;;;;;5023083;28;20569;-62
2021/09/21 09:10:21;;;;;;;11.18;5.25;;;13.10;84.10;;;;;;5019725;28;20095;-63
2021/09/21 09:12:47;;;;;;;7.20;4.53;;;13.20;84.20;;;;;;5027382;28;20048;-63
2021/09/21 09:15:18;;;;;;;8.77;4.53;;;13.40;83.90;;;;;;5024453;28;20026;-64
2021/09/21 09:17:55;;;;;;;10.68;5.03;;;13.60;83.00;;;;;;5024287;28;20029;-63
2021/09/21 09:20:39;;;;;;;8.90;5.13;;;13.70;83.20;;;;;;5018730;28;20079;-62
2021/09/21 09:23:07;;;;;;;10.73;5.60;;;13.60;81.60;;;;;;5020114;28;20033;-62
2021/09/21 09:25:43;;;;;;;8.10;5.03;;;13.60;81.50;;;;;;5024108;28;20053;-62
2021/09/21 09:28:23;;;;;;;10.82;5.53;;;13.70;81.80;;;;;;5028669;28;20044;-64
2021/09/21 09:30:51;;;;;;;10.15;5.55;;;13.70;82.10;;;;;;5019973;28;20057;-63
2021/09/21 09:33:19;;;;;;;10.52;5.25;;;13.70;81.00;;;;;;5021038;28;20037;-63
2021/09/21 09:35:47;;;;;;;12.38;6.15;;;13.70;81.80;;;;;;5016309;28;20030;-62
2021/09/21 09:38:16;;;;;;;12.70;5.30;;;13.80;81.80;;;;;;5022224;28;20514;-63
2021/09/21 09:40:47;;;;;;;10.73;5.20;;;13.70;81.40;;;;;;5012356;28;20022;-61
2021/09/21 09:43:14;;;;;;;8.27;5.55;;;13.60;80.10;;;;;;5018886;28;20392;-62
2021/09/21 09:45:46;;;;;;;8.75;5.07;;;13.50;80.50;;;;;;5024666;28;20029;-63
2021/09/21 09:48:14;;;;;;;12.07;5.43;;;13.50;80.70;;;;;;5027750;28;20033;-62
2021/09/21 09:50:44;;;;;;;9.40;4.85;;;13.60;80.50;;;;;;5022369;28;20066;-63
2021/09/21 09:53:13;;;;;;;10.68;5.50;;;13.50;80.10;;;;;;5023973;28;20164;-63
2021/09/21 09:55:46;;;;;;;9.02;5.20;;;13.60;80.90;;;;;;5018183;28;20022;-62
2021/09/21 09:58:12;;;;;;;9.25;5.05;;;13.70;79.70;;;;;;5020572;28;20056;-62
2021/09/21 10:00:38;;;;;;;7.38;5.35;;;13.70;80.00;;;;;;5022936;28;20064;-63
2021/09/21 10:03:06;;;;;;;9.70;5.20;;;13.90;79.30;;;;;;5018617;28;20053;-63
2021/09/21 10:05:34;;;;;;;8.15;5.00;;;14.00;79.30;;;;;;5019980;28;20026;-61
2021/09/21 10:08:00;;;;;;;7.70;4.50;;;14.00;78.00;;;;;;5026195;28;20519;-63
2021/09/21 10:10:26;;;;;;;9.90;5.20;;;13.90;78.80;;;;;;5030792;28;20044;-63
2021/09/21 10:12:53;;;;;;;9.32;5.03;;;14.10;78.10;;;;;;5021812;28;20022;-63
2021/09/21 10:15:19;;;;;;;9.63;4.63;;;14.10;78.50;;;;;;5019109;28;20103;-62
2021/09/21 10:17:53;;;;;;;8.07;4.75;;;14.40;78.60;;;;;;5019583;28;20034;-63
2021/09/21 10:20:30;;;;;;;8.77;4.93;;;14.50;77.60;;;;;;5016678;28;20474;-63
2021/09/21 10:22:56;;;;;;;8.48;4.38;;;14.50;77.00;;;;;;5015298;28;20256;-63
2021/09/21 10:25:31;;;;;;;7.03;4.10;;;14.60;76.90;;;;;;5007860;28;20033;-63
2021/09/21 10:27:57;;;;;;;7.85;4.65;;;14.80;77.20;;;;;;5018221;28;20440;-62
2021/09/21 10:30:29;;;;;;;9.77;5.20;;;14.80;75.70;;;;;;5018245;28;20276;-63
2021/09/21 10:32:56;;;;;;;10.57;4.93;;;14.80;75.70;;;;;;5016226;28;20038;-64
2021/09/21 10:35:27;;;;;;;9.80;4.15;;;15.00;77.10;;;;;;5011457;28;20025;-62
2021/09/21 10:38:04;;;;;;;10.15;4.50;;;15.00;75.00;;;;;;5019593;28;20021;-63
2021/09/21 10:40:44;;;;;;;9.02;4.93;;;15.10;75.50;;;;;;5023156;28;20121;-64
2021/09/21 10:43:25;;;;;;;11.13;4.40;;;15.10;75.10;;;;;;5023375;28;20480;-63
2021/09/21 10:46:04;;;;;;;9.65;5.13;;;15.10;75.20;;;;;;5019035;28;20411;-62
2021/09/21 10:48:32;;;;;;;12.13;5.30;;;15.10;74.00;;;;;;5024943;28;20040;-61
2021/09/21 10:50:59;;;;;;;7.38;4.60;;;15.20;74.00;;;;;;5024454;28;20602;-63
2021/09/21 10:53:25;;;;;;;7.28;4.72;;;15.30;73.20;;;;;;5017221;28;20073;-63
2021/09/21 10:56:09;;;;;;;8.05;4.53;;;15.30;73.60;;;;;;5015118;28;20072;-62
2021/09/21 10:58:36;;;;;;;8.93;4.47;;;15.50;73.60;;;;;;5019002;28;20243;-63
2021/09/21 11:01:03;;;;;;;9.45;4.60;;;15.40;72.90;;;;;;5016105;28;20021;-63
2021/09/21 11:03:30;;;;;;;7.00;4.18;;;15.30;72.20;;;;;;5026030;28;20175;-61
2021/09/21 11:05:57;;;;;;;10.45;4.40;;;15.40;71.80;;;;;;5043017;28;20035;-63
2021/09/21 11:08:31;;;;;;;7.20;3.95;;;15.40;72.50;;;;;;5022038;28;20029;-63
2021/09/21 11:11:01;;;;;;;6.93;3.90;;;15.50;72.30;;;;;;5025425;28;20041;-63
2021/09/21 11:13:32;;;;;;;6.53;3.88;;;15.60;71.40;;;;;;5025772;28;20036;-63
2021/09/21 11:16:00;;;;;;;7.35;4.03;;;15.50;71.90;;;;;;5025852;28;20071;-62
2021/09/21 11:18:26;;;;;;;7.68;4.07;;;15.70;72.10;;;;;;5027952;28;20030;-62
2021/09/21 11:21:00;;;;;;;7.95;3.92;;;15.80;70.90;;;;;;5023929;28;20384;-63
2021/09/21 11:23:35;;;;;;;7.97;4.20;;;15.80;71.70;;;;;;5017900;28;20511;-61
2021/09/21 11:26:07;;;;;;;10.13;4.25;;;16.00;71.70;;;;;;5028534;28;20518;-62
2021/09/21 11:28:33;;;;;;;;;;;15.90;71.40;;;;;;5022292;28;20037;-63
2021/09/21 11:31:01;;;;;;;9.73;4.10;;;16.00;72.20;;;;;;5025907;28;19909;-63
2021/09/21 11:33:31;;;;;;;5.18;3.47;;;16.10;71.20;;;;;;5028596;28;20042;-63
2021/09/21 11:36:06;;;;;;;7.20;3.97;;;16.00;71.20;;;;;;5027329;28;20416;-63
2021/09/21 11:38:35;;;;;;;6.78;4.20;;;15.90;70.90;;;;;;5025307;28;20045;-62
2021/09/21 11:41:01;;;;;;;7.80;3.53;;;16.00;70.40;;;;;;5019819;28;20026;-64
2021/09/21 11:43:29;;;;;;;8.13;3.75;;;16.00;71.00;;;;;;5024800;28;20103;-63
2021/09/21 11:45:56;;;;;;;7.75;4.25;;;16.10;71.20;;;;;;5027672;28;20148;-63
2021/09/21 11:48:22;;;;;;;9.60;4.45;;;16.00;70.90;;;;;;5028494;28;20036;-64
2021/09/21 11:50:49;;;;;;;9.68;4.00;;;16.00;71.50;;;;;;5023256;28;20021;-64
2021/09/21 11:53:19;;;;;;;6.45;4.03;;;16.00;71.80;;;;;;5026844;28;20373;-63
2021/09/21 11:55:47;;;;;;;8.32;4.35;;;16.10;72.00;;;;;;5030273;28;20029;-63
2021/09/21 11:58:14;;;;;;;10.10;4.13;;;16.20;71.50;;;;;;5022116;28;20081;-63
2021/09/21 12:00:41;;;;;;;6.78;4.00;;;16.20;71.60;;;;;;5026822;28;20427;-64
2021/09/21 12:03:15;;;;;;;9.20;4.20;;;16.20;71.30;;;;;;5022641;28;20235;-63
2021/09/21 12:05:44;;;;;;;9.05;4.07;;;16.10;71.50;;;;;;5033015;28;20496;-62
2021/09/21 12:08:22;;;;;;;5.63;3.60;;;16.20;71.50;;;;;;5025672;28;20484;-62
2021/09/21 12:10:54;;;;;;;7.57;3.88;;;16.10;71.00;;;;;;5021347;28;20040;-62
2021/09/21 12:13:22;;;;;;;6.25;3.67;;;15.90;72.60;;;;;;5020891;28;20025;-62
2021/09/21 12:15:52;;;;;;;8.07;3.85;;;15.90;73.00;;;;;;5026704;28;20092;-64
2021/09/21 12:18:18;;;;;;;9.10;3.22;;;15.70;73.00;;;;;;5024407;28;20087;-63
2021/09/21 12:20:56;;;;;;;7.93;4.25;;;15.60;73.60;;;;;;5028650;28;20379;-63
2021/09/21 12:23:24;;;;;;;6.00;3.97;;;15.70;72.80;;;;;;5019270;28;20026;-62
2021/09/21 12:25:52;;;;;;;7.25;3.75;;;15.80;72.10;;;;;;5024901;28;20034;-63
2021/09/21 12:28:33;;;;;;;7.88;4.20;;;16.00;72.50;;;;;;5025156;28;20033;-63
2021/09/21 12:31:10;;;;;;;9.70;3.97;;;16.10;73.40;;;;;;5018487;28;20423;-64
2021/09/21 12:33:37;;;;;;;9.32;3.88;;;16.10;72.50;;;;;;5030552;28;20090;-63
2021/09/21 12:36:03;;;;;;;9.23;3.95;;;16.10;72.20;;;;;;5025815;28;20086;-63
2021/09/21 12:38:29;;;;;;;7.57;4.43;;;16.30;71.60;;;;;;5024446;28;20064;-63
2021/09/21 12:40:59;;;;;;;9.15;4.53;;;16.40;72.10;;;;;;5030541;28;20034;-64
2021/09/21 12:43:42;;;;;;;7.80;4.13;;;16.40;70.80;;;;;;5023424;28;20474;-63
2021/09/21 12:46:10;;;;;;;9.25;5.00;;;16.50;71.50;;;;;;5023110;28;20279;-64
2021/09/21 12:48:38;;;;;;;9.50;4.90;;;16.40;71.40;;;;;;5025081;28;20026;-63
2021/09/21 12:51:06;;;;;;;7.63;4.28;;;16.50;71.80;;;;;;5023222;28;20116;-63
2021/09/21 12:53:32;;;;;;;8.15;4.32;;;16.70;71.70;;;;;;5024624;28;20048;-63
2021/09/21 12:56:08;;;;;;;7.07;3.97;;;17.00;70.90;;;;;;5031209;28;20441;-63
2021/09/21 12:58:39;;;;;;;6.72;3.70;;;17.20;70.50;;;;;;5041907;28;20033;-64
2021/09/21 13:01:07;;;;;;;7.35;3.95;;;17.10;71.20;;;;;;5027141;28;20454;-62